Time;durP1;ratioP1;P1;durP2;ratioP2;P2;SDS_P1;SDS_P2;PMS_P1;PMS_P2;Temp;Humidity;BMP_temperature;BMP_pressure;BME280_temperature;BME280_humidity;BME280_pressure;Samples;Min_cycle;Max_cycle;Signal;HPM_P1;HPM_P2
2023/01/23 00:01:06;;;;;;;;;;;;;;;;;;7367011;19;848;-76
2023/01/23 00:03:34;;;;;;;;;;;;;;;;;;7366261;19;784;-78
2023/01/23 00:06:03;;;;;;;;;;;;;;;;;;7366683;19;789;-76
2023/01/23 00:08:31;;;;;;;;;;;;;;;;;;7366982;19;850;-76
2023/01/23 00:10:59;;;;;;;;;;;;;;;;;;7365376;19;1849;-76
2023/01/23 00:13:27;;;;;;;;;;;;;;;;;;7367055;19;772;-76
2023/01/23 00:15:55;;;;;;;;;;;;;;;;;;7363749;19;1388;-77
2023/01/23 00:18:24;;;;;;;;;;;;;;;;;;7366819;19;772;-77
2023/01/23 00:20:52;;;;;;;;;;;;;;;;;;7368176;19;856;-77
2023/01/23 00:23:20;;;;;;;;;;;;;;;;;;7366583;19;875;-76
2023/01/23 00:25:48;;;;;;;;;;;;;;;;;;7364752;19;1633;-75
2023/01/23 00:28:16;;;;;;;;;;;;;;;;;;7366385;19;1055;-76
2023/01/23 00:30:46;;;;;;;;;;;;;;;;;;7364997;19;1869;-77
2023/01/23 00:33:14;;;;;;;;;;;;;;;;;;7366343;19;767;-76
2023/01/23 00:35:42;;;;;;;;;;;;;;;;;;7364712;19;1295;-77
2023/01/23 00:38:10;;;;;;;;;;;;;;;;;;7365487;19;835;-76
2023/01/23 00:40:39;;;;;;;;;;;;;;;;;;7365224;19;1596;-77
2023/01/23 00:43:08;;;;;;;;;;;;;;;;;;7365341;19;809;-77
2023/01/23 00:45:36;;;;;;;;;;;;;;;;;;7362673;19;1255;-76
2023/01/23 00:48:05;;;;;;;;;;;;;;;;;;7369409;19;900;-77
2023/01/23 00:50:33;;;;;;;;;;;;;;;;;;7371314;19;1806;-77
2023/01/23 00:53:01;;;;;;;;;;;;;;;;;;7372306;19;812;-76
2023/01/23 00:55:29;;;;;;;;;;;;;;;;;;7371513;19;1353;-76
2023/01/23 00:57:58;;;;;;;;;;;;;;;;;;7372893;19;1531;-76
2023/01/23 01:00:26;;;;;;;;;;;;;;;;;;7371694;19;792;-75
2023/01/23 01:02:54;;;;;;;;;;;;;;;;;;7372070;19;811;-76
2023/01/23 01:05:23;;;;;;;;;;;;;;;;;;7370611;19;1298;-77
2023/01/23 01:07:51;;;;;;;;;;;;;;;;;;7372440;19;882;-76
2023/01/23 01:10:19;;;;;;;;;;;;;;;;;;7372060;19;1427;-77
2023/01/23 01:12:47;;;;;;;;;;;;;;;;;;7368757;19;1826;-77
2023/01/23 01:15:15;;;;;;;;;;;;;;;;;;7369717;19;1357;-76
2023/01/23 01:17:44;;;;;;;;;;;;;;;;;;7370216;19;831;-76
2023/01/23 01:20:12;;;;;;;;;;;;;;;;;;7371031;19;851;-76
2023/01/23 01:22:40;;;;;;;;;;;;;;;;;;7371868;19;803;-76
2023/01/23 01:25:08;;;;;;;;;;;;;;;;;;7369940;19;1278;-76
2023/01/23 01:27:36;;;;;;;;;;;;;;;;;;7373612;19;1413;-77
2023/01/23 01:30:05;;;;;;;;;;;;;;;;;;7370762;19;824;-77
2023/01/23 01:32:33;;;;;;;;;;;;;;;;;;7369502;19;1834;-77
2023/01/23 01:35:01;;;;;;;;;;;;;;;;;;7369054;19;1326;-76
2023/01/23 01:37:29;;;;;;;;;;;;;;;;;;7371477;19;775;-77
2023/01/23 01:39:57;;;;;;;;;;;;;;;;;;7370164;19;722;-76
2023/01/23 01:42:27;;;;;;;;;;;;;;;;;;7370952;19;1632;-76
2023/01/23 01:44:55;;;;;;;;;;;;;;;;;;7368481;19;1398;-77
2023/01/23 01:47:25;;;;;;;;;;;;;;;;;;7370186;19;741;-76
2023/01/23 01:49:54;;;;;;;;;;;;;;;;;;7369464;19;579;-76
2023/01/23 01:52:22;;;;;;;;;;;;;;;;;;7369839;19;1843;-76
2023/01/23 01:54:50;;;;;;;;;;;;;;;;;;7370582;19;1310;-76
2023/01/23 01:57:18;;;;;;;;;;;;;;;;;;7372642;19;791;-76
2023/01/23 01:59:46;;;;;;;;;;;;;;;;;;7371607;19;1404;-77
2023/01/23 02:02:15;;;;;;;;;;;;;;;;;;7369691;19;761;-77
2023/01/23 02:04:43;;;;;;;;;;;;;;;;;;7368349;19;1839;-76
2023/01/23 02:07:11;;;;;;;;;;;;;;;;;;7370418;19;818;-76
2023/01/23 02:09:40;;;;;;;;;;;;;;;;;;7368966;19;785;-75
2023/01/23 02:12:08;;;;;;;;;;;;;;;;;;7367742;19;1831;-76
2023/01/23 02:14:36;;;;;;;;;;;;;;;;;;7369558;19;1838;-77
2023/01/23 02:17:04;;;;;;;;;;;;;;;;;;7370439;19;873;-76
2023/01/23 02:19:32;;;;;;;;;;;;;;;;;;7368395;19;858;-76
2023/01/23 02:22:00;;;;;;;;;;;;;;;;;;7368908;19;776;-76
2023/01/23 02:24:30;;;;;;;;;;;;;;;;;;7368254;19;1267;-76
2023/01/23 02:26:59;;;;;;;;;;;;;;;;;;7369367;19;599;-75
2023/01/23 02:29:28;;;;;;;;;;;;;;;;;;7368543;19;854;-76
2023/01/23 02:31:57;;;;;;;;;;;;;;;;;;7370563;19;1905;-76
2023/01/23 02:34:27;;;;;;;;;;;;;;;;;;7372264;19;1375;-76
2023/01/23 02:37:00;;;;;;;;;;;;;;;;;;7369073;19;774;-76
2023/01/23 02:39:28;;;;;;;;;;;;;;;;;;7368934;19;1596;-75
2023/01/23 02:41:57;;;;;;;;;;;;;;;;;;7368693;19;791;-77
2023/01/23 02:44:39;;;;;;;;;;;;;;;;;;7367498;19;1400;-75
2023/01/23 02:47:11;;;;;;;;;;;;;;;;;;7370122;19;1522;-77
2023/01/23 02:49:39;;;;;;;;;;;;;;;;;;7375304;19;991;-78
2023/01/23 02:52:09;;;;;;;;;;;;;;;;;;7375849;19;1818;-77
2023/01/23 02:54:39;;;;;;;;;;;;;;;;;;7369017;19;1435;-76
2023/01/23 02:57:07;;;;;;;;;;;;;;;;;;7370441;19;635;-76
2023/01/23 03:02:16;;;;;;;;;;;;;;;;;;7367921;19;1506;-76
2023/01/23 03:04:44;;;;;;;;;;;;;;;;;;7366398;19;1290;-76
2023/01/23 03:07:12;;;;;;;;;;;;;;;;;;7368148;19;760;-76
2023/01/23 03:09:41;;;;;;;;;;;;;;;;;;7367582;19;831;-77
2023/01/23 03:12:09;;;;;;;;;;;;;;;;;;7362714;19;1848;-76
2023/01/23 03:14:38;;;;;;;;;;;;;;;;;;7365959;19;1353;-76
2023/01/23 03:17:06;;;;;;;;;;;;;;;;;;7368629;19;804;-76
2023/01/23 03:19:37;;;;;;;;;;;;;;;;;;7370408;19;1805;-76
2023/01/23 03:22:06;;;;;;;;;;;;;;;;;;7369490;19;858;-76
2023/01/23 03:24:34;;;;;;;;;;;;;;;;;;7366317;19;1319;-76
2023/01/23 03:27:02;;;;;;;;;;;;;;;;;;7366765;19;837;-74
2023/01/23 03:32:17;;;;;;;;;;;;;;;;;;7365558;19;1841;-76
2023/01/23 03:34:45;;;;;;;;;;;;;;;;;;7365094;19;1307;-76
2023/01/23 03:37:14;;;;;;;;;;;;;;;;;;7371170;19;1598;-76
2023/01/23 03:42:27;;;;;;;;;;;;;;;;;;7367077;19;1428;-76
2023/01/23 03:44:57;;;;;;;;;;;;;;;;;;7365164;19;1375;-75
2023/01/23 03:47:29;;;;;;;;;;;;;;;;;;7367069;19;691;-76
2023/01/23 03:49:57;;;;;;;;;;;;;;;;;;7367138;19;827;-76
2023/01/23 03:52:25;;;;;;;;;;;;;;;;;;7369637;19;1845;-76
2023/01/23 03:54:53;;;;;;;;;;;;;;;;;;7366429;19;1279;-75
2023/01/23 03:57:21;;;;;;;;;;;;;;;;;;7366524;19;828;-76
2023/01/23 03:59:49;;;;;;;;;;;;;;;;;;7367407;19;839;-75
2023/01/23 04:02:20;;;;;;;;;;;;;;;;;;7366862;19;757;-75
2023/01/23 04:04:49;;;;;;;;;;;;;;;;;;7364888;19;1363;-76
2023/01/23 04:07:17;;;;;;;;;;;;;;;;;;7368912;19;1511;-76
2023/01/23 04:09:46;;;;;;;;;;;;;;;;;;7365825;19;807;-77
2023/01/23 04:12:14;;;;;;;;;;;;;;;;;;7366553;19;1843;-75
2023/01/23 04:14:46;;;;;;;;;;;;;;;;;;7364551;19;1295;-76
2023/01/23 04:17:15;;;;;;;;;;;;;;;;;;7365426;19;907;-77
2023/01/23 04:19:44;;;;;;;;;;;;;;;;;;7366150;19;795;-76
2023/01/23 04:22:12;;;;;;;;;;;;;;;;;;7365477;19;866;-76
2023/01/23 04:24:46;;;;;;;;;;;;;;;;;;7369510;19;1629;-76
2023/01/23 04:27:14;;;;;;;;;;;;;;;;;;7365774;19;817;-76
2023/01/23 04:29:42;;;;;;;;;;;;;;;;;;7365053;19;855;-76
2023/01/23 04:32:11;;;;;;;;;;;;;;;;;;7364738;19;1848;-76
2023/01/23 04:34:45;;;;;;;;;;;;;;;;;;7363896;19;1396;-75
2023/01/23 04:37:13;;;;;;;;;;;;;;;;;;7365090;19;801;-76
2023/01/23 04:39:42;;;;;;;;;;;;;;;;;;7367891;19;1597;-76
2023/01/23 04:42:10;;;;;;;;;;;;;;;;;;7365390;19;799;-75
2023/01/23 04:44:49;;;;;;;;;;;;;;;;;;7363464;19;1361;-75
2023/01/23 04:47:36;;;;;;;;;;;;;;;;;;7366102;19;838;-76
2023/01/23 04:50:08;;;;;;;;;;;;;;;;;;7364890;19;635;-76
2023/01/23 04:52:36;;;;;;;;;;;;;;;;;;7363423;19;1838;-76
2023/01/23 04:55:04;;;;;;;;;;;;;;;;;;7362607;19;1310;-76
2023/01/23 04:57:33;;;;;;;;;;;;;;;;;;7364567;19;744;-77
2023/01/23 05:00:27;;;;;;;;;;;;;;;;;;7366173;19;1129;-77
2023/01/23 05:02:56;;;;;;;;;;;;;;;;;;7364477;19;666;-75
2023/01/23 05:05:25;;;;;;;;;;;;;;;;;;7361563;19;1316;-79
2023/01/23 05:07:57;;;;;;;;;;;;;;;;;;7363610;19;757;-75
2023/01/23 05:10:25;;;;;;;;;;;;;;;;;;7364230;19;843;-76
2023/01/23 05:12:54;;;;;;;;;;;;;;;;;;7366723;19;1841;-75
2023/01/23 05:15:23;;;;;;;;;;;;;;;;;;7364936;19;1609;-75
2023/01/23 05:17:52;;;;;;;;;;;;;;;;;;7363236;19;839;-75
2023/01/23 05:20:22;;;;;;;;;;;;;;;;;;7363779;19;803;-75
2023/01/23 05:22:53;;;;;;;;;;;;;;;;;;7366716;19;1629;-76
2023/01/23 05:25:28;;;;;;;;;;;;;;;;;;7361980;19;1330;-74
2023/01/23 05:27:58;;;;;;;;;;;;;;;;;;7363789;19;769;-76
2023/01/23 05:30:27;;;;;;;;;;;;;;;;;;7364334;19;844;-78
2023/01/23 05:33:06;;;;;;;;;;;;;;;;;;7362582;19;1876;-75
2023/01/23 05:35:34;;;;;;;;;;;;;;;;;;7366797;19;1318;-76
2023/01/23 05:38:02;;;;;;;;;;;;;;;;;;7370045;19;856;-76
2023/01/23 05:40:30;;;;;;;;;;;;;;;;;;7371025;19;1016;-77
2023/01/23 05:43:19;;;;;;;;;;;;;;;;;;7371844;19;1254;-76
2023/01/23 05:46:18;;;;;;;;;;;;;;;;;;7369369;19;1343;-77
2023/01/23 05:48:49;;;;;;;;;;;;;;;;;;7369758;19;606;-76
2023/01/23 05:51:18;;;;;;;;;;;;;;;;;;7369606;19;834;-78
2023/01/23 05:53:46;;;;;;;;;;;;;;;;;;7368365;19;1812;-78
2023/01/23 05:56:14;;;;;;;;;;;;;;;;;;7370878;19;791;-76
2023/01/23 05:59:04;;;;;;;;;;;;;;;;;;7370750;19;836;-76
2023/01/23 06:01:52;;;;;;;;;;;;;;;;;;7374972;19;1481;-76
2023/01/23 06:04:39;;;;;;;;;;;;;;;;;;7370844;19;1330;-75
2023/01/23 06:07:20;;;;;;;;;;;;;;;;;;7369467;19;765;-76
2023/01/23 06:09:51;;;;;;;;;;;;;;;;;;7369181;19;797;-76
2023/01/23 06:12:20;;;;;;;;;;;;;;;;;;7369693;19;1841;-76
2023/01/23 06:14:48;;;;;;;;;;;;;;;;;;7369958;19;1349;-75
2023/01/23 06:17:16;;;;;;;;;;;;;;;;;;7371986;19;1541;-77
2023/01/23 06:19:44;;;;;;;;;;;;;;;;;;7368548;19;792;-75
2023/01/23 06:22:13;;;;;;;;;;;;;;;;;;7369100;19;718;-75
2023/01/23 06:25:13;;;;;;;;;;;;;;;;;;7368639;19;1284;-76
2023/01/23 06:27:42;;;;;;;;;;;;;;;;;;7370795;19;917;-77
2023/01/23 06:30:10;;;;;;;;;;;;;;;;;;7369328;19;891;-76
2023/01/23 06:32:41;;;;;;;;;;;;;;;;;;7370324;19;1854;-76
2023/01/23 06:35:11;;;;;;;;;;;;;;;;;;7368255;19;1394;-76
2023/01/23 06:37:42;;;;;;;;;;;;;;;;;;7369769;19;564;-76
2023/01/23 06:40:13;;;;;;;;;;;;;;;;;;7370444;19;556;-78
2023/01/23 06:42:44;;;;;;;;;;;;;;;;;;7370848;19;579;-77
2023/01/23 06:45:12;;;;;;;;;;;;;;;;;;7372335;19;1598;-77
2023/01/23 06:47:40;;;;;;;;;;;;;;;;;;7372562;19;1602;-78
2023/01/23 06:50:08;;;;;;;;;;;;;;;;;;7373053;19;824;-77
2023/01/23 06:52:39;;;;;;;;;;;;;;;;;;7378851;19;1846;-78
2023/01/23 06:55:07;;;;;;;;;;;;;;;;;;7381775;19;1313;-76
2023/01/23 06:57:36;;;;;;;;;;;;;;;;;;7400477;19;795;-78
2023/01/23 07:00:04;;;;;;;;;;;;;;;;;;7403115;19;1347;-78
2023/01/23 07:02:34;;;;;;;;;;;;;;;;;;7404619;19;1054;-78
2023/01/23 07:05:02;;;;;;;;;;;;;;;;;;7398770;19;1310;-78
2023/01/23 07:07:30;;;;;;;;;;;;;;;;;;7406031;19;1534;-77
2023/01/23 07:09:59;;;;;;;;;;;;;;;;;;7405050;19;1582;-76
2023/01/23 07:12:27;;;;;;;;;;;;;;;;;;7402135;19;1826;-75
2023/01/23 07:14:55;;;;;;;;;;;;;;;;;;7404012;19;1598;-76
2023/01/23 07:17:29;;;;;;;;;;;;;;;;;;7398561;19;1620;-76
2023/01/23 07:19:57;;;;;;;;;;;;;;;;;;7369836;19;784;-76
2023/01/23 07:22:26;;;;;;;;;;;;;;;;;;7370146;19;844;-76
2023/01/23 07:24:54;;;;;;;;;;;;;;;;;;7369281;19;1286;-76
2023/01/23 07:27:22;;;;;;;;;;;;;;;;;;7371224;19;799;-76
2023/01/23 07:29:50;;;;;;;;;;;;;;;;;;7370837;19;874;-77
2023/01/23 07:32:19;;;;;;;;;;;;;;;;;;7370990;19;791;-76
2023/01/23 07:34:47;;;;;;;;;;;;;;;;;;7367365;19;1331;-77
2023/01/23 07:37:15;;;;;;;;;;;;;;;;;;7369814;19;860;-76
2023/01/23 07:39:44;;;;;;;;;;;;;;;;;;7367780;19;826;-75
2023/01/23 07:42:12;;;;;;;;;;;;;;;;;;7370743;19;2120;-76
2023/01/23 07:44:43;;;;;;;;;;;;;;;;;;7375391;19;2113;-78
2023/01/23 07:47:11;;;;;;;;;;;;;;;;;;7372626;19;1416;-76
2023/01/23 07:49:39;;;;;;;;;;;;;;;;;;7369392;19;846;-76
2023/01/23 07:52:07;;;;;;;;;;;;;;;;;;7370353;19;804;-75
2023/01/23 07:54:35;;;;;;;;;;;;;;;;;;7367326;19;1815;-76
2023/01/23 07:57:04;;;;;;;;;;;;;;;;;;7366546;19;843;-76
2023/01/23 07:59:32;;;;;;;;;;;;;;;;;;7369286;19;1618;-75
2023/01/23 08:02:00;;;;;;;;;;;;;;;;;;7369055;19;867;-76
2023/01/23 08:04:31;;;;;;;;;;;;;;;;;;7367804;19;1350;-74
2023/01/23 08:07:00;;;;;;;;;;;;;;;;;;7369052;19;799;-73
2023/01/23 08:09:28;;;;;;;;;;;;;;;;;;7368875;19;854;-76
2023/01/23 08:11:56;;;;;;;;;;;;;;;;;;7368550;19;799;-77
2023/01/23 08:14:24;;;;;;;;;;;;;;;;;;7366339;19;1843;-77
2023/01/23 08:16:52;;;;;;;;;;;;;;;;;;7371851;19;1542;-77
2023/01/23 08:19:21;;;;;;;;;;;;;;;;;;7368550;19;867;-77
2023/01/23 08:21:49;;;;;;;;;;;;;;;;;;7368999;19;784;-77
2023/01/23 08:24:17;;;;;;;;;;;;;;;;;;7366256;19;1348;-76
2023/01/23 08:26:45;;;;;;;;;;;;;;;;;;7366988;19;812;-76
2023/01/23 08:29:13;;;;;;;;;;;;;;;;;;7366708;19;864;-77
2023/01/23 08:31:41;;;;;;;;;;;;;;;;;;7368460;19;869;-76
2023/01/23 08:34:10;;;;;;;;;;;;;;;;;;7365594;19;1848;-77
2023/01/23 08:36:38;;;;;;;;;;;;;;;;;;7370630;19;784;-77
2023/01/23 08:39:06;;;;;;;;;;;;;;;;;;7368356;19;852;-76
2023/01/23 08:41:34;;;;;;;;;;;;;;;;;;7373351;19;1502;-74
2023/01/23 08:44:03;;;;;;;;;;;;;;;;;;7367275;19;1372;-76
2023/01/23 08:46:31;;;;;;;;;;;;;;;;;;7371634;19;1418;-76
2023/01/23 08:48:59;;;;;;;;;;;;;;;;;;7365917;19;795;-76
2023/01/23 08:51:27;;;;;;;;;;;;;;;;;;7367728;19;811;-76
2023/01/23 08:53:56;;;;;;;;;;;;;;;;;;7369411;19;1861;-77
2023/01/23 08:56:24;;;;;;;;;;;;;;;;;;7369332;19;787;-77
2023/01/23 08:58:52;;;;;;;;;;;;;;;;;;7365517;19;828;-75
2023/01/23 09:01:20;;;;;;;;;;;;;;;;;;7366205;19;791;-75
2023/01/23 09:03:48;;;;;;;;;;;;;;;;;;7367381;19;1244;-74
2023/01/23 09:06:17;;;;;;;;;;;;;;;;;;7366698;19;1672;-75
2023/01/23 09:08:45;;;;;;;;;;;;;;;;;;7367582;19;819;-74
2023/01/23 09:11:13;;;;;;;;;;;;;;;;;;7373516;19;724;-75
2023/01/23 09:13:41;;;;;;;;;;;;;;;;;;7373618;19;1853;-77
2023/01/23 09:16:10;;;;;;;;;;;;;;;;;;7377260;19;1494;-75
2023/01/23 09:18:38;;;;;;;;;;;;;;;;;;7372350;19;792;-75
2023/01/23 09:21:06;;;;;;;;;;;;;;;;;;7373305;19;807;-73
2023/01/23 09:23:34;;;;;;;;;;;;;;;;;;7373175;19;827;-76
2023/01/23 09:26:02;;;;;;;;;;;;;;;;;;7371740;19;1253;-77
2023/01/23 09:28:30;;;;;;;;;;;;;;;;;;7374026;19;1603;-77
2023/01/23 09:30:59;;;;;;;;;;;;;;;;;;7378242;19;1622;-76
2023/01/23 09:33:27;;;;;;;;;;;;;;;;;;7373446;19;1837;-77
2023/01/23 09:35:56;;;;;;;;;;;;;;;;;;7369463;19;1265;-75
2023/01/23 09:38:25;;;;;;;;;;;;;;;;;;7373146;19;1878;-76
2023/01/23 09:40:54;;;;;;;;;;;;;;;;;;7373617;19;920;-77
2023/01/23 09:43:22;;;;;;;;;;;;;;;;;;7373759;19;1307;-77
2023/01/23 09:45:50;;;;;;;;;;;;;;;;;;7371128;19;1287;-76
2023/01/23 09:48:18;;;;;;;;;;;;;;;;;;7371647;19;787;-76
2023/01/23 09:50:47;;;;;;;;;;;;;;;;;;7373784;19;878;-76
2023/01/23 09:53:15;;;;;;;;;;;;;;;;;;7372559;19;1821;-76
2023/01/23 09:55:44;;;;;;;;;;;;;;;;;;7370395;19;1345;-76
2023/01/23 09:58:12;;;;;;;;;;;;;;;;;;7372446;19;887;-76
2023/01/23 10:00:40;;;;;;;;;;;;;;;;;;7372668;19;802;-77
2023/01/23 10:03:08;;;;;;;;;;;;;;;;;;7371991;19;760;-77
2023/01/23 10:05:37;;;;;;;;;;;;;;;;;;7369761;19;1270;-76
2023/01/23 10:08:05;;;;;;;;;;;;;;;;;;7372664;19;815;-76
2023/01/23 10:10:33;;;;;;;;;;;;;;;;;;7372922;19;861;-77
2023/01/23 10:13:01;;;;;;;;;;;;;;;;;;7372446;19;851;-75
2023/01/23 10:15:29;;;;;;;;;;;;;;;;;;7369008;19;1846;-74
2023/01/23 10:17:58;;;;;;;;;;;;;;;;;;7375246;19;1812;-76
2023/01/23 10:20:29;;;;;;;;;;;;;;;;;;7374031;19;1645;-76
2023/01/23 10:22:57;;;;;;;;;;;;;;;;;;7372924;19;1498;-74
2023/01/23 10:25:25;;;;;;;;;;;;;;;;;;7371027;19;1326;-75
2023/01/23 10:27:53;;;;;;;;;;;;;;;;;;7372246;19;1513;-76
2023/01/23 10:30:21;;;;;;;;;;;;;;;;;;7372799;19;1583;-74
2023/01/23 10:32:49;;;;;;;;;;;;;;;;;;7373233;19;1608;-76
2023/01/23 10:35:18;;;;;;;;;;;;;;;;;;7370829;19;1857;-76
2023/01/23 10:37:46;;;;;;;;;;;;;;;;;;7371769;19;1402;-76
2023/01/23 10:40:14;;;;;;;;;;;;;;;;;;7373319;19;1610;-77
2023/01/23 10:42:42;;;;;;;;;;;;;;;;;;7373718;19;1444;-76
2023/01/23 10:45:10;;;;;;;;;;;;;;;;;;7373748;19;1584;-77
2023/01/23 10:47:39;;;;;;;;;;;;;;;;;;7373523;19;1547;-75
2023/01/23 10:50:07;;;;;;;;;;;;;;;;;;7373196;19;1634;-76
2023/01/23 10:52:35;;;;;;;;;;;;;;;;;;7373144;19;1528;-76
2023/01/23 10:55:05;;;;;;;;;;;;;;;;;;7368291;19;1817;-77
2023/01/23 10:57:33;;;;;;;;;;;;;;;;;;7370650;19;808;-77
2023/01/23 11:00:03;;;;;;;;;;;;;;;;;;7371178;19;870;-76
2023/01/23 11:02:31;;;;;;;;;;;;;;;;;;7372157;19;996;-77
2023/01/23 11:04:59;;;;;;;;;;;;;;;;;;7368111;19;1290;-76
2023/01/23 11:07:27;;;;;;;;;;;;;;;;;;7371087;19;803;-76
2023/01/23 11:09:55;;;;;;;;;;;;;;;;;;7368615;19;781;-77
2023/01/23 11:12:24;;;;;;;;;;;;;;;;;;7370936;19;804;-76
2023/01/23 11:14:52;;;;;;;;;;;;;;;;;;7369498;19;1853;-76
2023/01/23 11:17:20;;;;;;;;;;;;;;;;;;7370679;19;804;-76
2023/01/23 11:19:48;;;;;;;;;;;;;;;;;;7369345;19;792;-76
2023/01/23 11:22:16;;;;;;;;;;;;;;;;;;7369264;19;863;-76
2023/01/23 11:24:44;;;;;;;;;;;;;;;;;;7368947;19;1330;-77
2023/01/23 11:27:13;;;;;;;;;;;;;;;;;;7370746;19;1546;-75
2023/01/23 11:29:41;;;;;;;;;;;;;;;;;;7370147;19;874;-76
2023/01/23 11:32:09;;;;;;;;;;;;;;;;;;7366861;19;903;-74
2023/01/23 11:34:37;;;;;;;;;;;;;;;;;;7367998;19;1854;-75
2023/01/23 11:37:05;;;;;;;;;;;;;;;;;;7370743;19;867;-75
2023/01/23 11:39:34;;;;;;;;;;;;;;;;;;7368693;19;777;-75
2023/01/23 11:42:02;;;;;;;;;;;;;;;;;;7373981;19;1587;-75
2023/01/23 11:44:30;;;;;;;;;;;;;;;;;;7369632;19;1353;-76
2023/01/23 11:46:59;;;;;;;;;;;;;;;;;;7368084;19;1300;-75
2023/01/23 11:49:27;;;;;;;;;;;;;;;;;;7369455;19;1502;-75
2023/01/23 11:51:55;;;;;;;;;;;;;;;;;;7371155;19;1550;-74
2023/01/23 11:54:23;;;;;;;;;;;;;;;;;;7369539;19;1828;-76
2023/01/23 11:56:52;;;;;;;;;;;;;;;;;;7373623;19;1392;-75
2023/01/23 11:59:20;;;;;;;;;;;;;;;;;;7374004;19;1569;-76
2023/01/23 12:01:48;;;;;;;;;;;;;;;;;;7370579;19;1490;-76
2023/01/23 12:04:16;;;;;;;;;;;;;;;;;;7371846;19;1569;-76
2023/01/23 12:06:44;;;;;;;;;;;;;;;;;;7367972;19;1574;-76
2023/01/23 12:09:14;;;;;;;;;;;;;;;;;;7369486;19;872;-76
2023/01/23 12:11:42;;;;;;;;;;;;;;;;;;7372195;19;1528;-77
2023/01/23 12:14:11;;;;;;;;;;;;;;;;;;7371002;19;1838;-78
2023/01/23 12:16:39;;;;;;;;;;;;;;;;;;7368993;19;831;-77
2023/01/23 12:19:07;;;;;;;;;;;;;;;;;;7369786;19;1620;-77
2023/01/23 12:21:35;;;;;;;;;;;;;;;;;;7369493;19;870;-77
2023/01/23 12:24:03;;;;;;;;;;;;;;;;;;7368359;19;1285;-77
2023/01/23 12:26:33;;;;;;;;;;;;;;;;;;7368457;19;789;-76
2023/01/23 12:29:01;;;;;;;;;;;;;;;;;;7372713;19;1859;-77
2023/01/23 12:31:29;;;;;;;;;;;;;;;;;;7369220;19;882;-77
2023/01/23 12:33:57;;;;;;;;;;;;;;;;;;7371258;19;1844;-76
2023/01/23 12:36:25;;;;;;;;;;;;;;;;;;7368728;19;788;-75
2023/01/23 12:38:54;;;;;;;;;;;;;;;;;;7370768;19;1639;-79
2023/01/23 12:41:22;;;;;;;;;;;;;;;;;;7368697;19;1522;-76
2023/01/23 12:43:50;;;;;;;;;;;;;;;;;;7377496;19;1519;-75
2023/01/23 12:46:18;;;;;;;;;;;;;;;;;;7385780;19;1416;-74
2023/01/23 12:48:46;;;;;;;;;;;;;;;;;;7379545;19;1513;-74
2023/01/23 12:51:15;;;;;;;;;;;;;;;;;;7382103;19;1530;-75
2023/01/23 12:53:43;;;;;;;;;;;;;;;;;;7383891;19;1505;-75
2023/01/23 12:56:11;;;;;;;;;;;;;;;;;;7378973;19;1841;-75
2023/01/23 12:58:39;;;;;;;;;;;;;;;;;;7380982;19;856;-76
2023/01/23 13:01:07;;;;;;;;;;;;;;;;;;7382445;19;852;-75
2023/01/23 13:03:35;;;;;;;;;;;;;;;;;;7382663;19;775;-77
2023/01/23 13:06:04;;;;;;;;;;;;;;;;;;7381938;19;1538;-76
2023/01/23 13:08:32;;;;;;;;;;;;;;;;;;7381678;19;1776;-76
2023/01/23 13:13:41;;;;;;;;;;;;;;;;;;7381238;19;847;-73
2023/01/23 13:16:09;;;;;;;;;;;;;;;;;;7377092;19;1843;-75
2023/01/23 13:21:59;;;;;;;;;;;;;;;;;;7385398;19;1635;-75
2023/01/23 13:25:08;;;;;;;;;;;;;;;;;;7380759;19;1593;-75
2023/01/23 13:26:55;;;;;;;;;;;;;;;;;;7382433;19;1132;-75
2023/01/23 13:29:23;;;;;;;;;;;;;;;;;;7382036;19;1506;-76
2023/01/23 13:31:55;;;;;;;;;;;;;;;;;;7387371;19;1541;-76
2023/01/23 13:34:24;;;;;;;;;;;;;;;;;;7381822;19;1813;-74
2023/01/23 13:36:52;;;;;;;;;;;;;;;;;;7383134;19;828;-75
2023/01/23 13:39:21;;;;;;;;;;;;;;;;;;7387266;19;1483;-75
2023/01/23 13:41:49;;;;;;;;;;;;;;;;;;7385594;19;1498;-76
2023/01/23 13:44:17;;;;;;;;;;;;;;;;;;7386063;19;1490;-76
2023/01/23 13:46:45;;;;;;;;;;;;;;;;;;7387822;19;1572;-76
2023/01/23 13:51:57;;;;;;;;;;;;;;;;;;7383624;19;807;-76
2023/01/23 13:57:06;;;;;;;;;;;;;;;;;;7374300;19;784;-76
2023/01/23 13:59:34;;;;;;;;;;;;;;;;;;7381077;19;1505;-76
2023/01/23 14:07:45;;;;;;;;;;;;;;;;;;7371885;19;1192;-77
2023/01/23 14:10:13;;;;;;;;;;;;;;;;;;7379362;19;1503;-74
2023/01/23 14:12:41;;;;;;;;;;;;;;;;;;7374868;19;824;-75
2023/01/23 14:17:50;;;;;;;;;;;;;;;;;;7374701;19;677;-75
2023/01/23 14:20:18;;;;;;;;;;;;;;;;;;7378025;19;1483;-75
2023/01/23 14:22:46;;;;;;;;;;;;;;;;;;7375511;19;811;-75
2023/01/23 14:25:15;;;;;;;;;;;;;;;;;;7370956;19;1620;-75
2023/01/23 14:27:44;;;;;;;;;;;;;;;;;;7369159;19;910;-75
2023/01/23 14:30:12;;;;;;;;;;;;;;;;;;7371722;19;603;-76
2023/01/23 14:32:40;;;;;;;;;;;;;;;;;;7372149;19;811;-77
2023/01/23 14:35:08;;;;;;;;;;;;;;;;;;7370543;19;1838;-76
2023/01/23 14:37:36;;;;;;;;;;;;;;;;;;7370892;19;867;-77
2023/01/23 14:40:05;;;;;;;;;;;;;;;;;;7371432;19;877;-76
2023/01/23 14:42:33;;;;;;;;;;;;;;;;;;7371421;19;776;-76
2023/01/23 14:45:02;;;;;;;;;;;;;;;;;;7369734;19;1290;-76
2023/01/23 14:47:30;;;;;;;;;;;;;;;;;;7370321;19;685;-76
2023/01/23 14:49:58;;;;;;;;;;;;;;;;;;7370271;19;792;-75
2023/01/23 14:52:27;;;;;;;;;;;;;;;;;;7371455;19;820;-75
2023/01/23 14:54:55;;;;;;;;;;;;;;;;;;7367625;19;1869;-75
2023/01/23 14:57:24;;;;;;;;;;;;;;;;;;7371924;19;863;-75
2023/01/23 14:59:52;;;;;;;;;;;;;;;;;;7370361;19;839;-76
2023/01/23 15:02:20;;;;;;;;;;;;;;;;;;7370908;19;760;-76
2023/01/23 15:04:48;;;;;;;;;;;;;;;;;;7369188;19;1294;-76
2023/01/23 15:07:16;;;;;;;;;;;;;;;;;;7371310;19;830;-75
2023/01/23 15:09:45;;;;;;;;;;;;;;;;;;7372429;19;775;-74
2023/01/23 15:12:13;;;;;;;;;;;;;;;;;;7370883;19;833;-76
2023/01/23 15:14:41;;;;;;;;;;;;;;;;;;7367601;19;1855;-77
2023/01/23 15:17:10;;;;;;;;;;;;;;;;;;7369440;19;784;-76
2023/01/23 15:19:41;;;;;;;;;;;;;;;;;;7368392;19;1057;-76
2023/01/23 15:22:09;;;;;;;;;;;;;;;;;;7370833;19;799;-75
2023/01/23 15:24:37;;;;;;;;;;;;;;;;;;7369079;19;1278;-76
2023/01/23 15:27:05;;;;;;;;;;;;;;;;;;7371590;19;862;-76
2023/01/23 15:29:33;;;;;;;;;;;;;;;;;;7370655;19;794;-76
2023/01/23 15:32:01;;;;;;;;;;;;;;;;;;7369339;19;813;-76
2023/01/23 15:34:30;;;;;;;;;;;;;;;;;;7369205;19;1330;-78
2023/01/23 15:36:58;;;;;;;;;;;;;;;;;;7366720;19;1830;-76
2023/01/23 15:39:26;;;;;;;;;;;;;;;;;;7371442;19;790;-76
2023/01/23 15:41:54;;;;;;;;;;;;;;;;;;7371269;19;875;-76
2023/01/23 15:44:22;;;;;;;;;;;;;;;;;;7368178;19;1397;-77
2023/01/23 15:46:51;;;;;;;;;;;;;;;;;;7372498;19;863;-76
2023/01/23 15:49:19;;;;;;;;;;;;;;;;;;7369939;19;811;-76
2023/01/23 15:51:47;;;;;;;;;;;;;;;;;;7377696;19;976;-76
2023/01/23 15:54:15;;;;;;;;;;;;;;;;;;7372427;19;1263;-78
2023/01/23 16:08:27;;;;;;;;;;;;;;;;;;7370213;19;1063;-77
2023/01/23 16:10:55;;;;;;;;;;;;;;;;;;7371422;19;890;-78
2023/01/23 16:13:23;;;;;;;;;;;;;;;;;;7369318;19;908;-76
2023/01/23 16:15:52;;;;;;;;;;;;;;;;;;7368243;19;1851;-77
2023/01/23 16:18:22;;;;;;;;;;;;;;;;;;7368472;19;891;-77
2023/01/23 16:20:50;;;;;;;;;;;;;;;;;;7368834;19;579;-77
2023/01/23 16:23:18;;;;;;;;;;;;;;;;;;7369228;19;816;-77
2023/01/23 16:25:47;;;;;;;;;;;;;;;;;;7366817;19;1282;-78
2023/01/23 16:28:15;;;;;;;;;;;;;;;;;;7368571;19;800;-78
2023/01/23 16:30:43;;;;;;;;;;;;;;;;;;7369378;19;798;-77
2023/01/23 16:33:11;;;;;;;;;;;;;;;;;;7371414;19;823;-76
2023/01/23 16:35:39;;;;;;;;;;;;;;;;;;7364723;19;1846;-78
2023/01/23 16:38:08;;;;;;;;;;;;;;;;;;7372229;19;1208;-77
2023/01/23 16:40:36;;;;;;;;;;;;;;;;;;7369703;19;820;-76
2023/01/23 16:43:04;;;;;;;;;;;;;;;;;;7367788;19;783;-79
2023/01/23 16:45:32;;;;;;;;;;;;;;;;;;7365082;19;1323;-77
2023/01/23 16:48:01;;;;;;;;;;;;;;;;;;7367501;19;867;-77
2023/01/23 16:50:29;;;;;;;;;;;;;;;;;;7367898;19;831;-76
2023/01/23 16:52:57;;;;;;;;;;;;;;;;;;7368537;19;776;-75
2023/01/23 16:55:25;;;;;;;;;;;;;;;;;;7364946;19;1833;-76
2023/01/23 16:57:53;;;;;;;;;;;;;;;;;;7369695;19;740;-76
2023/01/23 17:00:22;;;;;;;;;;;;;;;;;;7367533;19;807;-76
2023/01/23 17:02:50;;;;;;;;;;;;;;;;;;7367573;19;860;-76
2023/01/23 17:05:18;;;;;;;;;;;;;;;;;;7365109;19;1270;-78
2023/01/23 17:07:47;;;;;;;;;;;;;;;;;;7365894;19;893;-76
2023/01/23 17:10:15;;;;;;;;;;;;;;;;;;7368072;19;821;-77
2023/01/23 17:12:43;;;;;;;;;;;;;;;;;;7366310;19;858;-78
2023/01/23 17:15:12;;;;;;;;;;;;;;;;;;7365368;19;1337;-76
2023/01/23 17:17:40;;;;;;;;;;;;;;;;;;7369375;19;823;-79
2023/01/23 17:20:09;;;;;;;;;;;;;;;;;;7366518;19;726;-78
2023/01/23 17:22:37;;;;;;;;;;;;;;;;;;7366993;19;806;-78
2023/01/23 17:25:05;;;;;;;;;;;;;;;;;;7364836;19;1338;-79
2023/01/23 17:27:33;;;;;;;;;;;;;;;;;;7367734;19;837;-77
2023/01/23 17:30:01;;;;;;;;;;;;;;;;;;7367041;19;780;-78
2023/01/23 17:32:30;;;;;;;;;;;;;;;;;;7373081;19;795;-76
2023/01/23 17:34:58;;;;;;;;;;;;;;;;;;7372613;19;1297;-79
2023/01/23 17:37:26;;;;;;;;;;;;;;;;;;7371540;19;1834;-76
2023/01/23 17:39:54;;;;;;;;;;;;;;;;;;7371695;19;847;-75
2023/01/23 17:42:22;;;;;;;;;;;;;;;;;;7372728;19;739;-75
2023/01/23 17:44:51;;;;;;;;;;;;;;;;;;7370541;19;1294;-75
2023/01/23 17:47:19;;;;;;;;;;;;;;;;;;7372229;19;795;-75
2023/01/23 17:49:48;;;;;;;;;;;;;;;;;;7371202;19;819;-75
2023/01/23 17:52:16;;;;;;;;;;;;;;;;;;7372078;19;890;-74
2023/01/23 17:54:44;;;;;;;;;;;;;;;;;;7371390;19;1333;-74
2023/01/23 17:57:13;;;;;;;;;;;;;;;;;;7369310;19;1856;-75
2023/01/23 17:59:42;;;;;;;;;;;;;;;;;;7370498;19;834;-74
2023/01/23 18:02:10;;;;;;;;;;;;;;;;;;7372844;19;794;-76
2023/01/23 18:04:38;;;;;;;;;;;;;;;;;;7370588;19;1281;-77